createdAt,value
2023-02-24T00:02:06.346Z,7.24
2023-02-24T00:04:40.896Z,7.31
2023-02-24T00:07:10.860Z,7.23
2023-02-24T00:09:40.267Z,7.12
2023-02-24T00:12:13.376Z,7.12
2023-02-24T00:14:44.757Z,6.72
2023-02-24T00:17:16.423Z,6.64
2023-02-24T00:19:44.514Z,6.89
2023-02-24T00:22:12.992Z,6.94
2023-02-24T00:24:40.941Z,6.99
2023-02-24T00:27:11.955Z,6.99
2023-02-24T00:29:42.321Z,7.11
2023-02-24T00:32:13.520Z,7.11
2023-02-24T00:34:45.408Z,7.06
2023-02-24T00:37:15.557Z,7.06
2023-02-24T00:39:45.765Z,7.10
2023-02-24T00:42:15.054Z,7.18
2023-02-24T00:44:47.261Z,7.15
2023-02-24T00:47:18.233Z,7.01
2023-02-24T00:49:46.634Z,7.09
2023-02-24T00:52:19.402Z,7.15
2023-02-24T00:54:49.434Z,7.13
2023-02-24T00:57:18.800Z,6.99
2023-02-24T00:59:47.911Z,6.86
2023-02-24T01:02:16.383Z,6.89
2023-02-24T01:04:46.219Z,6.94
2023-02-24T01:07:14.954Z,6.99
2023-02-24T01:09:44.448Z,7.04
2023-02-24T01:12:42.961Z,6.99
2023-02-24T01:15:11.702Z,7.09
2023-02-24T01:17:40.877Z,7.16
2023-02-24T01:20:19.205Z,7.00
2023-02-24T01:22:53.505Z,6.87
2023-02-24T01:25:21.868Z,6.86
2023-02-24T01:27:49.701Z,6.83
2023-02-24T01:30:18.663Z,6.93
2023-02-24T01:32:47.719Z,6.82
2023-02-24T01:35:16.090Z,6.65
2023-02-24T01:37:45.713Z,6.30
2023-02-24T01:40:18.959Z,6.59
2023-02-24T01:42:47.969Z,6.59
2023-02-24T01:45:22.016Z,6.46
2023-02-24T01:47:53.249Z,6.48
2023-02-24T01:50:23.816Z,6.49
2023-02-24T01:52:59.318Z,6.43
2023-02-24T01:55:32.613Z,6.45
2023-02-24T01:58:05.172Z,6.52
2023-02-24T02:00:38.153Z,6.59
2023-02-24T02:03:11.982Z,6.57
2023-02-24T02:05:41.036Z,6.58
2023-02-24T02:08:09.870Z,6.42
2023-02-24T02:10:41.454Z,6.24
2023-02-24T02:13:10.402Z,6.25
2023-02-24T02:15:47.449Z,6.30
2023-02-24T02:18:44.706Z,6.20
2023-02-24T02:21:32.832Z,6.24
2023-02-24T02:24:21.240Z,6.29
2023-02-24T02:27:10.790Z,6.31
2023-02-24T02:29:59.576Z,6.15
2023-02-24T02:32:39.529Z,6.08
2023-02-24T02:35:26.568Z,5.91
2023-02-24T02:38:05.765Z,6.15
2023-02-24T02:40:41.249Z,6.24
2023-02-24T02:43:26.136Z,6.29
2023-02-24T02:46:15.307Z,6.30
2023-02-24T02:48:58.487Z,6.18
2023-02-24T02:51:38.950Z,6.07
2023-02-24T02:54:17.137Z,6.15
2023-02-24T02:57:55.358Z,6.12
2023-02-24T03:00:29.613Z,6.03
2023-02-24T03:03:04.161Z,6.13
2023-02-24T03:05:46.725Z,6.11
2023-02-24T03:08:19.375Z,6.13
2023-02-24T03:10:51.920Z,6.14
2023-02-24T03:13:30.531Z,6.17
2023-02-24T03:16:02.657Z,6.03
2023-02-24T03:18:35.603Z,6.24
2023-02-24T03:21:08.130Z,6.24
2023-02-24T03:23:40.923Z,6.25
2023-02-24T03:26:30.520Z,6.31
2023-02-24T03:29:36.904Z,6.10
2023-02-24T03:32:12.762Z,5.97
2023-02-24T03:34:52.479Z,5.85
2023-02-24T03:37:25.986Z,5.89
2023-02-24T03:39:57.443Z,5.77
2023-02-24T03:42:31.283Z,5.76
2023-02-24T03:44:59.407Z,5.67
2023-02-24T03:47:27.772Z,5.68
2023-02-24T03:49:55.715Z,5.69
2023-02-24T03:52:49.735Z,5.55
2023-02-24T03:55:54.943Z,5.50
2023-02-24T03:59:00.029Z,5.47
2023-02-24T04:01:58.201Z,5.56
2023-02-24T04:04:46.039Z,5.61
2023-02-24T04:07:26.637Z,5.65
2023-02-24T04:10:15.499Z,5.55
2023-02-24T04:12:52.526Z,5.57
2023-02-24T04:15:29.750Z,5.54
2023-02-24T04:18:15.183Z,5.63
2023-02-24T04:20:49.610Z,5.39
2023-02-24T04:23:22.675Z,5.47
2023-02-24T04:25:53.555Z,5.39
2023-02-24T04:28:25.738Z,5.52
2023-02-24T04:31:10.387Z,5.59
2023-02-24T04:33:40.527Z,5.60
2023-02-24T04:36:13.086Z,5.55
2023-02-24T04:38:42.606Z,5.53
2023-02-24T04:41:10.788Z,5.42
2023-02-24T04:43:38.652Z,5.42
2023-02-24T04:46:08.342Z,5.42
2023-02-24T04:48:36.462Z,5.46
2023-02-24T04:51:06.815Z,5.39
2023-02-24T04:53:34.867Z,5.49
2023-02-24T04:56:09.204Z,5.46
2023-02-24T04:58:38.932Z,5.62
2023-02-24T05:01:11.167Z,5.53
2023-02-24T05:03:42.636Z,5.61
2023-02-24T05:06:18.063Z,5.57
2023-02-24T05:08:46.171Z,5.64
2023-02-24T05:11:21.757Z,5.82
2023-02-24T05:13:50.033Z,5.91
2023-02-24T05:16:20.605Z,5.91
2023-02-24T05:18:48.765Z,5.84
2023-02-24T05:21:35.958Z,5.91
2023-02-24T05:24:07.440Z,5.84
2023-02-24T05:26:38.016Z,5.84
2023-02-24T05:29:07.255Z,5.78
2023-02-24T05:31:35.646Z,5.84
2023-02-24T05:34:06.444Z,5.89
2023-02-24T05:36:40.873Z,5.99
2023-02-24T05:39:12.900Z,6.09
2023-02-24T05:41:43.410Z,6.04
2023-02-24T05:44:16.062Z,6.09
2023-02-24T05:46:46.871Z,6.20
2023-02-24T05:49:24.218Z,6.23
2023-02-24T05:51:57.309Z,6.31
2023-02-24T05:54:32.389Z,6.36
2023-02-24T05:57:12.085Z,6.44
2023-02-24T05:59:44.885Z,6.42
2023-02-24T06:02:15.180Z,6.40
2023-02-24T06:04:51.575Z,6.41
2023-02-24T06:07:34.573Z,6.45
2023-02-24T06:10:05.020Z,6.51
2023-02-24T06:12:34.532Z,6.63
2023-02-24T06:15:08.054Z,6.72
2023-02-24T06:17:36.232Z,6.69
2023-02-24T06:20:14.692Z,6.63
2023-02-24T06:22:42.796Z,6.61
2023-02-24T06:25:14.344Z,6.70
2023-02-24T06:27:43.302Z,6.69
2023-02-24T06:30:12.072Z,6.33
2023-02-24T06:32:40.375Z,6.25
2023-02-24T06:35:09.700Z,6.30
2023-02-24T06:37:37.580Z,6.20
2023-02-24T06:40:16.131Z,6.36
2023-02-24T06:42:46.651Z,6.02
2023-02-24T06:45:15.620Z,5.92
2023-02-24T06:47:43.498Z,5.98
2023-02-24T06:50:12.570Z,5.97
2023-02-24T06:52:40.945Z,6.04
2023-02-24T06:55:25.863Z,6.18
2023-02-24T06:57:59.674Z,6.09
2023-02-24T07:00:37.421Z,6.17
2023-02-24T07:03:17.377Z,6.12
2023-02-24T07:05:51.006Z,6.26
2023-02-24T07:08:23.086Z,6.28
2023-02-24T07:10:56.171Z,6.54
2023-02-24T07:13:26.084Z,6.30
2023-02-24T07:15:55.059Z,6.32
2023-02-24T07:18:26.842Z,6.38
2023-02-24T07:20:54.848Z,6.26
2023-02-24T07:23:22.723Z,6.26
2023-02-24T07:25:50.593Z,6.26
2023-02-24T07:28:19.432Z,6.41
2023-02-24T07:30:47.370Z,6.59
2023-02-24T07:33:15.398Z,6.63
2023-02-24T07:35:43.717Z,6.61
2023-02-24T07:38:14.602Z,6.48
2023-02-24T07:40:42.478Z,6.56
2023-02-24T07:43:11.302Z,6.67
2023-02-24T07:45:39.708Z,6.78
2023-02-24T07:48:08.095Z,6.99
2023-02-24T07:50:36.028Z,7.21
2023-02-24T07:53:05.725Z,7.36
2023-02-24T07:55:36.363Z,7.39
2023-02-24T07:58:06.169Z,7.66
2023-02-24T08:00:51.144Z,7.73
2023-02-24T08:03:19.260Z,8.34
2023-02-24T08:05:47.178Z,9.03
2023-02-24T08:08:21.217Z,8.67
2023-02-24T08:10:49.272Z,8.59
2023-02-24T08:13:19.424Z,8.53
2023-02-24T08:15:56.850Z,8.65
2023-02-24T08:18:24.873Z,8.67
2023-02-24T08:20:52.947Z,8.67
2023-02-24T08:23:23.725Z,8.57
2023-02-24T08:25:51.998Z,8.31
2023-02-24T08:28:20.154Z,8.42
2023-02-24T08:30:48.093Z,8.42
2023-02-24T08:33:24.493Z,8.35
2023-02-24T08:36:01.751Z,8.51
2023-02-24T08:38:44.966Z,8.38
2023-02-24T08:41:21.683Z,8.05
2023-02-24T08:43:50.024Z,8.19
2023-02-24T08:46:26.922Z,8.23
2023-02-24T08:49:01.015Z,8.63
2023-02-24T08:51:37.340Z,8.63
2023-02-24T08:54:15.677Z,8.76
2023-02-24T08:56:49.428Z,8.94
2023-02-24T08:59:37.339Z,9.02
2023-02-24T09:02:17.825Z,9.42
2023-02-24T09:04:47.784Z,9.72
2023-02-24T09:07:18.885Z,10.85
2023-02-24T09:09:47.797Z,12.14
2023-02-24T09:12:24.852Z,12.55
2023-02-24T09:14:56.232Z,13.19
2023-02-24T09:17:45.682Z,13.69
2023-02-24T09:20:27.546Z,12.95
2023-02-24T09:23:18.320Z,12.10
2023-02-24T09:25:51.007Z,11.18
2023-02-24T09:28:27.659Z,11.85
2023-02-24T09:31:00.002Z,12.79
2023-02-24T09:33:39.911Z,13.01
2023-02-24T09:36:28.449Z,12.95
2023-02-24T09:39:00.697Z,14.15
2023-02-24T09:42:18.491Z,15.00
2023-02-24T09:44:53.052Z,13.89
2023-02-24T09:47:40.499Z,12.44
2023-02-24T09:50:59.120Z,11.19
2023-02-24T09:53:18.987Z,10.85
2023-02-24T09:56:00.551Z,11.04
2023-02-24T09:58:48.108Z,11.44
2023-02-24T10:01:23.215Z,12.53
2023-02-24T10:03:56.852Z,13.50
2023-02-24T10:06:35.440Z,13.48
2023-02-24T10:09:14.102Z,14.04
2023-02-24T10:11:53.931Z,15.09
2023-02-24T10:14:53.226Z,15.90
2023-02-24T10:17:26.115Z,16.47
2023-02-24T10:20:29.408Z,17.41
2023-02-24T10:23:11.354Z,18.44
2023-02-24T10:25:54.307Z,19.62
2023-02-24T10:28:37.990Z,18.67
2023-02-24T10:31:26.754Z,18.74
2023-02-24T10:34:01.240Z,17.29
2023-02-24T10:36:35.883Z,16.00
2023-02-24T10:39:25.866Z,14.09
2023-02-24T10:42:17.971Z,13.59
2023-02-24T10:45:02.346Z,12.94
2023-02-24T10:47:31.858Z,12.82
2023-02-24T10:50:00.982Z,13.01
2023-02-24T10:57:18.797Z,12.57
2023-02-24T11:00:16.891Z,12.29
2023-02-24T11:03:07.280Z,12.37
2023-02-24T11:06:05.921Z,12.70
2023-02-24T11:08:40.052Z,12.56
2023-02-24T11:11:26.088Z,13.26
2023-02-24T11:14:15.183Z,13.99
2023-02-24T11:17:13.942Z,14.47
2023-02-24T11:19:47.587Z,14.71
2023-02-24T11:22:20.685Z,14.74
2023-02-24T11:24:50.380Z,15.12
2023-02-24T11:27:26.761Z,14.42
2023-02-24T11:30:25.289Z,14.76
2023-02-24T11:33:05.077Z,14.82
2023-02-24T11:35:43.544Z,14.42
2023-02-24T11:38:29.162Z,14.29
2023-02-24T11:41:05.594Z,14.42
2023-02-24T11:43:37.297Z,14.69
2023-02-24T11:46:17.909Z,14.91
2023-02-24T11:48:57.292Z,14.88
2023-02-24T11:51:30.414Z,15.87
2023-02-24T11:54:12.096Z,16.69
2023-02-24T11:56:44.248Z,16.94
2023-02-24T11:59:33.708Z,16.11
2023-02-24T12:02:47.346Z,16.12
2023-02-24T12:05:19.204Z,15.96
2023-02-24T12:07:56.633Z,15.86
2023-02-24T12:10:36.161Z,15.75
2023-02-24T12:13:39.056Z,15.19
2023-02-24T12:16:15.362Z,15.04
2023-02-24T12:18:50.723Z,14.58
2023-02-24T12:21:30.906Z,14.52
2023-02-24T12:23:59.496Z,14.59
2023-02-24T12:26:48.344Z,14.40
2023-02-24T12:29:42.735Z,14.43
2023-02-24T12:32:21.233Z,14.68
2023-02-24T12:35:11.388Z,14.63
2023-02-24T12:38:06.638Z,14.47
2023-02-24T12:41:04.165Z,14.75
2023-02-24T12:43:50.638Z,14.98
2023-02-24T12:46:38.850Z,14.90
2023-02-24T12:49:33.808Z,14.63
2023-02-24T12:52:25.079Z,14.62
2023-02-24T12:55:02.868Z,14.35
2023-02-24T12:57:40.598Z,14.36
2023-02-24T13:00:18.180Z,14.54
2023-02-24T13:03:06.460Z,14.39
2023-02-24T13:05:48.769Z,14.43
2023-02-24T13:08:28.855Z,14.51
2023-02-24T13:11:06.760Z,14.43
2023-02-24T13:13:45.110Z,14.57
2023-02-24T13:16:13.504Z,14.56
2023-02-24T13:18:41.737Z,14.56
2023-02-24T13:21:15.627Z,14.59
2023-02-24T13:23:57.447Z,14.67
2023-02-24T13:26:28.241Z,14.56
2023-02-24T13:29:15.690Z,14.56
2023-02-24T13:31:51.739Z,14.48
2023-02-24T13:34:30.954Z,14.37
2023-02-24T13:36:59.545Z,14.62
2023-02-24T13:39:38.654Z,15.01
2023-02-24T13:42:21.088Z,15.31
2023-02-24T13:45:13.466Z,15.47
2023-02-24T13:47:54.765Z,15.53
2023-02-24T13:50:33.161Z,15.38
2023-02-24T13:53:29.907Z,15.42
2023-02-24T13:56:34.510Z,15.13
2023-02-24T13:59:21.055Z,14.66
2023-02-24T14:02:01.660Z,14.69
2023-02-24T14:04:35.339Z,14.94
2023-02-24T14:07:09.797Z,14.97
2023-02-24T14:09:46.110Z,14.76
2023-02-24T14:12:25.449Z,14.70
2023-02-24T14:14:54.587Z,14.69
2023-02-24T14:17:32.835Z,14.78
2023-02-24T14:20:09.922Z,14.56
2023-02-24T14:22:55.538Z,14.73
2023-02-24T14:25:24.172Z,14.45
2023-02-24T14:27:55.068Z,14.23
2023-02-24T14:30:28.141Z,14.23
2023-02-24T14:32:56.673Z,13.96
2023-02-24T14:35:31.800Z,13.86
2023-02-24T14:38:02.167Z,13.63
2023-02-24T14:40:30.715Z,13.77
2023-02-24T14:42:58.799Z,13.73
2023-02-24T14:45:28.966Z,13.80
2023-02-24T14:47:57.649Z,13.80
2023-02-24T14:50:33.600Z,13.87
2023-02-24T14:53:12.433Z,13.80
2023-02-24T14:55:43.265Z,13.66
2023-02-24T14:58:28.595Z,13.60
2023-02-24T15:01:04.013Z,13.43
2023-02-24T15:03:46.674Z,13.48
2023-02-24T15:06:41.037Z,13.31
2023-02-24T15:09:19.244Z,13.33
2023-02-24T15:11:48.521Z,13.36
2023-02-24T15:14:31.255Z,13.26
2023-02-24T15:17:04.221Z,13.27
2023-02-24T15:19:44.551Z,13.26
2023-02-24T15:22:33.958Z,13.23
2023-02-24T15:25:22.353Z,13.01
2023-02-24T15:27:57.649Z,13.01
2023-02-24T15:30:33.557Z,12.96
2023-02-24T15:33:17.840Z,12.94
2023-02-24T15:35:58.703Z,12.73
2023-02-24T15:38:36.757Z,12.79
2023-02-24T15:41:06.887Z,12.72
2023-02-24T15:43:48.656Z,12.63
2023-02-24T15:46:19.331Z,12.60
2023-02-24T15:48:50.685Z,12.52
2023-02-24T15:51:29.611Z,12.51
2023-02-24T15:54:01.094Z,12.29
2023-02-24T15:56:33.226Z,12.32
2023-02-24T15:59:02.961Z,12.28
2023-02-24T16:01:31.807Z,12.19
2023-02-24T16:04:01.037Z,12.17
2023-02-24T16:06:29.657Z,12.10
2023-02-24T16:08:58.520Z,11.93
2023-02-24T16:11:29.626Z,11.79
2023-02-24T16:14:00.221Z,11.71
2023-02-24T16:16:29.069Z,11.67
2023-02-24T16:18:57.762Z,11.43
2023-02-24T16:21:26.186Z,11.44
2023-02-24T16:23:54.887Z,11.28
2023-02-24T16:26:24.355Z,11.04
2023-02-24T16:28:58.206Z,11.03
2023-02-24T16:31:27.864Z,10.99
2023-02-24T16:33:56.479Z,10.93
2023-02-24T16:36:25.936Z,10.82
2023-02-24T16:38:54.292Z,10.79
2023-02-24T16:41:23.692Z,10.80
2023-02-24T16:43:52.349Z,10.62
2023-02-24T16:46:23.620Z,10.58
2023-02-24T16:48:53.755Z,10.57
2023-02-24T16:51:22.377Z,10.40
2023-02-24T16:53:50.654Z,10.49
2023-02-24T16:56:19.270Z,10.42
2023-02-24T16:58:47.639Z,10.32
2023-02-24T17:01:21.072Z,10.17
2023-02-24T17:03:51.528Z,10.10
2023-02-24T17:06:22.534Z,9.91
2023-02-24T17:08:52.016Z,9.65
2023-02-24T17:11:22.319Z,9.66
2023-02-24T17:13:50.858Z,9.73
2023-02-24T17:16:19.449Z,9.50
2023-02-24T17:18:48.077Z,9.47
2023-02-24T17:21:17.209Z,9.52
2023-02-24T17:23:46.175Z,9.46
2023-02-24T17:26:15.415Z,9.44
2023-02-24T17:28:44.262Z,9.31
2023-02-24T17:31:12.818Z,9.07
2023-02-24T17:33:42.051Z,9.12
2023-02-24T17:36:10.958Z,9.20
2023-02-24T17:38:39.237Z,9.25
2023-02-24T17:41:07.473Z,9.24
2023-02-24T17:43:36.095Z,9.24
2023-02-24T17:46:06.940Z,8.96
2023-02-24T17:48:36.092Z,8.91
2023-02-24T17:51:04.456Z,9.04
2023-02-24T17:53:33.084Z,9.02
2023-02-24T17:56:06.427Z,8.94
2023-02-24T17:58:35.263Z,8.97
2023-02-24T18:01:06.611Z,8.88
2023-02-24T18:03:36.714Z,8.69
2023-02-24T18:06:13.338Z,8.67
2023-02-24T18:08:41.833Z,8.37
2023-02-24T18:11:16.404Z,8.37
2023-02-24T18:13:45.302Z,8.37
2023-02-24T18:16:16.809Z,8.22
2023-02-24T18:18:45.484Z,8.21
2023-02-24T18:21:13.922Z,8.27
2023-02-24T18:23:42.373Z,8.37
2023-02-24T18:26:12.764Z,8.32
2023-02-24T18:28:41.347Z,8.16
2023-02-24T18:31:21.565Z,8.15
2023-02-24T18:33:50.490Z,8.31
2023-02-24T18:36:20.083Z,8.33
2023-02-24T18:38:48.813Z,8.35
2023-02-24T18:41:19.594Z,8.28
2023-02-24T18:43:49.345Z,8.16
2023-02-24T18:46:19.445Z,8.18
2023-02-24T18:48:50.630Z,8.23
2023-02-24T18:51:22.499Z,8.04
2023-02-24T18:53:52.891Z,7.91
2023-02-24T18:56:26.687Z,8.06
2023-02-24T18:58:58.100Z,8.10
2023-02-24T19:01:33.020Z,8.09
2023-02-24T19:04:02.017Z,7.96
2023-02-24T19:06:32.492Z,7.86
2023-02-24T19:09:07.934Z,7.84
2023-02-24T19:11:37.543Z,7.83
2023-02-24T19:14:06.810Z,7.65
2023-02-24T19:16:35.505Z,7.77
2023-02-24T19:19:04.592Z,7.84
2023-02-24T19:21:33.661Z,7.70
2023-02-24T19:24:04.148Z,7.68
2023-02-24T19:26:32.675Z,7.52
2023-02-24T19:29:01.137Z,7.58
2023-02-24T19:31:31.820Z,7.48
2023-02-24T19:34:03.521Z,7.42
2023-02-24T19:36:33.223Z,7.29
2023-02-24T19:39:02.082Z,7.11
2023-02-24T19:41:30.781Z,7.03
2023-02-24T19:43:59.348Z,6.83
2023-02-24T19:46:29.198Z,6.82
2023-02-24T19:48:57.368Z,6.78
2023-02-24T19:51:26.436Z,6.66
2023-02-24T19:53:57.107Z,6.81
2023-02-24T19:56:33.922Z,6.85
2023-02-24T19:59:03.704Z,6.81
2023-02-24T20:01:32.268Z,6.79
2023-02-24T20:04:03.053Z,6.78
2023-02-24T20:06:36.147Z,6.45
2023-02-24T20:09:10.173Z,6.50
2023-02-24T20:11:39.926Z,6.33
2023-02-24T20:14:09.745Z,6.40
2023-02-24T20:16:42.829Z,6.19
2023-02-24T20:19:13.136Z,6.42
2023-02-24T20:21:42.618Z,6.36
2023-02-24T20:24:15.057Z,6.37
2023-02-24T20:26:47.489Z,6.28
2023-02-24T20:29:18.535Z,6.14
2023-02-24T20:31:47.782Z,6.13
2023-02-24T20:34:17.220Z,6.34
2023-02-24T20:36:45.964Z,6.41
2023-02-24T20:39:14.797Z,6.19
2023-02-24T20:41:44.171Z,6.11
2023-02-24T20:44:12.577Z,6.31
2023-02-24T20:46:41.007Z,6.38
2023-02-24T20:49:15.020Z,6.34
2023-02-24T20:51:43.953Z,6.49
2023-02-24T20:54:13.350Z,6.31
2023-02-24T20:56:44.576Z,6.31
2023-02-24T20:59:16.881Z,6.34
2023-02-24T21:01:47.947Z,6.44
2023-02-24T21:04:19.496Z,6.34
2023-02-24T21:06:48.879Z,6.24
2023-02-24T21:09:17.298Z,6.32
2023-02-24T21:11:45.692Z,6.27
2023-02-24T21:14:16.064Z,6.13
2023-02-24T21:16:46.489Z,6.04
2023-02-24T21:19:15.397Z,5.72
2023-02-24T21:21:43.493Z,5.89
2023-02-24T21:24:11.645Z,5.97
2023-02-24T21:26:39.877Z,5.98
2023-02-24T21:29:08.477Z,6.11
2023-02-24T21:31:36.738Z,5.92
2023-02-24T21:34:05.186Z,5.89
2023-02-24T21:36:33.167Z,5.85
2023-02-24T21:39:01.471Z,6.01
2023-02-24T21:41:29.621Z,5.85
2023-02-24T21:44:00.809Z,5.95
2023-02-24T21:46:29.337Z,6.00
2023-02-24T21:48:58.709Z,6.08
2023-02-24T21:51:28.093Z,6.05
2023-02-24T21:53:58.000Z,6.27
2023-02-24T21:56:28.881Z,6.01
2023-02-24T21:59:05.976Z,6.22
2023-02-24T22:01:36.963Z,5.97
2023-02-24T22:04:09.138Z,6.12
2023-02-24T22:06:39.341Z,6.16
2023-02-24T22:09:09.958Z,6.32
2023-02-24T22:11:41.225Z,6.27
2023-02-24T22:14:11.859Z,6.32
2023-02-24T22:16:40.988Z,6.37
2023-02-24T22:19:09.225Z,6.39
2023-02-24T22:21:39.422Z,6.41
2023-02-24T22:24:07.603Z,6.12
2023-02-24T22:26:35.423Z,6.27
2023-02-24T22:29:03.709Z,6.05
2023-02-24T22:31:33.700Z,6.16
2023-02-24T22:34:01.738Z,6.19
2023-02-24T22:36:32.089Z,6.11
2023-02-24T22:39:01.953Z,6.08
2023-02-24T22:41:32.499Z,6.13
2023-02-24T22:44:01.942Z,5.99
2023-02-24T22:46:32.951Z,5.85
2023-02-24T22:49:01.199Z,5.92
2023-02-24T22:51:29.212Z,5.93
2023-02-24T22:53:57.306Z,5.82
2023-02-24T22:56:28.000Z,5.86
2023-02-24T22:58:56.390Z,5.83
2023-02-24T23:01:30.456Z,5.77
2023-02-24T23:04:03.948Z,5.81
2023-02-24T23:06:32.696Z,5.82
2023-02-24T23:09:01.178Z,5.61
2023-02-24T23:11:35.201Z,5.40
2023-02-24T23:14:06.225Z,5.38
2023-02-24T23:16:35.355Z,5.28
2023-02-24T23:19:06.461Z,5.28
2023-02-24T23:21:43.455Z,5.23
2023-02-24T23:24:14.064Z,5.24
2023-02-24T23:26:47.432Z,5.19
2023-02-24T23:29:17.743Z,5.30
2023-02-24T23:31:46.428Z,5.23
2023-02-24T23:34:15.202Z,5.36
2023-02-24T23:36:45.491Z,5.32
2023-02-24T23:39:16.268Z,5.51
2023-02-24T23:41:44.504Z,5.61
2023-02-24T23:44:12.979Z,5.60
2023-02-24T23:46:44.792Z,5.68
2023-02-24T23:49:12.822Z,5.68
2023-02-24T23:51:48.407Z,6.15
2023-02-24T23:54:18.472Z,6.33
2023-02-24T23:56:49.048Z,6.44
2023-02-24T23:59:17.156Z,6.62
